Time;durP1;ratioP1;P1;durP2;ratioP2;P2;SDS_P1;SDS_P2;PMS_P1;PMS_P2;Temp;Humidity;BMP_temperature;BMP_pressure;BME280_temperature;BME280_humidity;BME280_pressure;Samples;Min_cycle;Max_cycle;Signal;HPM_P1;HPM_P2
2022/12/06 00:02:07;;;;;;;8.07;3.60;;;;;;;3.72;100.00;102140.94;5032340;28;20036;-75
2022/12/06 00:04:33;;;;;;;2.58;2.38;;;;;;;3.63;100.00;102138.88;5032151;28;20042;-75
2022/12/06 00:06:59;;;;;;;6.72;4.30;;;;;;;3.57;100.00;102144.56;5015719;28;20029;-75
2022/12/06 00:09:27;;;;;;;9.30;4.47;;;;;;;3.40;100.00;102144.78;5034055;28;20395;-75
2022/12/06 00:11:53;;;;;;;6.03;4.25;;;;;;;3.23;100.00;102148.50;5019395;28;20383;-74
2022/12/06 00:14:19;;;;;;;9.60;4.85;;;;;;;3.18;100.00;102145.25;5036293;28;20037;-75
2022/12/06 00:16:46;;;;;;;7.40;4.72;;;;;;;3.08;100.00;102155.59;5035808;28;20033;-75
2022/12/06 00:19:14;;;;;;;7.32;4.85;;;;;;;3.07;100.00;102146.75;5003444;28;20575;-74
2022/12/06 00:21:40;;;;;;;8.45;4.25;;;;;;;3.05;100.00;102148.66;5036041;28;20033;-74
2022/12/06 00:24:20;;;;;;;10.95;6.68;;;;;;;3.04;100.00;102149.63;5019646;28;20041;-75
2022/12/06 00:26:49;;;;;;;6.80;4.40;;;;;;;2.99;100.00;102129.56;5035723;28;20033;-75
2022/12/06 00:29:17;;;;;;;7.22;4.32;;;;;;;3.12;100.00;102143.81;5035583;28;20108;-74
2022/12/06 00:31:43;;;;;;;8.18;4.43;;;;;;;3.20;100.00;102160.16;5003036;28;20045;-74
2022/12/06 00:34:09;;;;;;;7.07;4.72;;;;;;;3.29;100.00;102154.28;5035482;28;20036;-75
2022/12/06 00:36:38;;;;;;;6.50;5.03;;;;;;;3.34;100.00;102156.66;5003000;28;20039;-75
2022/12/06 00:39:12;;;;;;;13.50;5.53;;;;;;;3.41;100.00;102147.31;5003063;28;20038;-75
2022/12/06 00:41:38;;;;;;;7.35;3.55;;;;;;;3.55;100.00;102151.81;5035500;28;20033;-74
2022/12/06 00:44:04;;;;;;;5.35;3.28;;;;;;;3.66;100.00;102159.97;5002977;28;20045;-75
2022/12/06 00:46:30;;;;;;;5.68;3.67;;;;;;;3.65;100.00;102139.66;5018699;28;20033;-75
2022/12/06 00:48:57;;;;;;;8.55;3.40;;;;;;;3.91;100.00;102150.41;5002856;28;20029;-74
2022/12/06 00:51:24;;;;;;;8.77;4.30;;;;;;;3.97;100.00;102150.88;5002846;28;20041;-75
2022/12/06 00:53:50;;;;;;;6.55;4.10;;;;;;;4.06;100.00;102149.44;5002368;28;20033;-75
2022/12/06 00:56:16;;;;;;;6.90;4.00;;;;;;;4.13;100.00;102155.22;5018848;28;20045;-75
2022/12/06 00:58:43;;;;;;;9.02;4.70;;;;;;;4.17;100.00;102152.25;5018807;28;20033;-75
2022/12/06 01:01:10;;;;;;;4.38;3.25;;;;;;;4.21;100.00;102160.03;5002695;28;20136;-74
2022/12/06 01:03:36;;;;;;;11.45;5.07;;;;;;;4.14;100.00;102146.28;5036137;28;20033;-75
2022/12/06 01:06:08;;;;;;;7.80;4.28;;;;;;;4.21;100.00;102152.03;5002512;28;20038;-75
2022/12/06 01:08:34;;;;;;;6.78;4.60;;;;;;;4.21;100.00;102146.72;5002518;28;20037;-75
2022/12/06 01:11:01;;;;;;;11.27;4.55;;;;;;;4.33;100.00;102140.59;5035086;28;20037;-75
2022/12/06 01:13:27;;;;;;;7.60;4.85;;;;;;;4.32;100.00;102152.22;5034981;28;20067;-75
2022/12/06 01:15:53;;;;;;;6.78;3.45;;;;;;;4.36;100.00;102149.22;5034831;28;20434;-74
2022/12/06 01:18:19;;;;;;;8.57;5.68;;;;;;;4.48;100.00;102150.22;5051133;28;20036;-75
2022/12/06 01:20:46;;;;;;;7.65;4.30;;;;;;;4.50;100.00;102153.66;5050370;28;20037;-75
2022/12/06 01:23:12;;;;;;;7.82;4.25;;;;;;;4.30;100.00;102148.78;5051377;28;20038;-75
2022/12/06 01:25:38;;;;;;;3.80;2.95;;;;;;;4.06;100.00;102143.25;5018204;28;20048;-75
2022/12/06 01:28:04;;;;;;;4.00;3.28;;;;;;;3.95;100.00;102147.47;5001806;28;20415;-74
2022/12/06 01:30:30;;;;;;;3.58;2.60;;;;;;;3.89;100.00;102133.69;5018391;28;20035;-74
2022/12/06 01:32:56;;;;;;;7.30;3.78;;;;;;;3.84;100.00;102147.31;5034416;28;20104;-74
2022/12/06 01:35:22;;;;;;;7.13;4.85;;;;;;;3.93;100.00;102138.72;5002027;28;20037;-75
2022/12/06 01:37:47;;;;;;;4.60;3.35;;;;;;;4.03;100.00;102136.31;5017780;28;20459;-74
2022/12/06 01:40:13;;;;;;;4.40;3.30;;;;;;;4.13;100.00;102129.47;5001895;28;20078;-75
2022/12/06 01:42:39;;;;;;;6.72;5.53;;;;;;;4.13;100.00;102128.59;5001872;28;20364;-75
2022/12/06 01:45:05;;;;;;;8.43;4.38;;;;;;;4.17;100.00;102127.44;5001840;28;20045;-75
2022/12/06 01:47:35;;;;;;;7.80;4.60;;;;;;;4.18;100.00;102116.69;5001390;28;20168;-74
2022/12/06 01:50:10;;;;;;;5.90;3.90;;;;;;;4.28;100.00;102132.06;5001657;28;20044;-74
2022/12/06 01:52:51;;;;;;;4.20;3.60;;;;;;;4.08;100.00;102109.41;5017894;28;20030;-75
2022/12/06 01:55:19;;;;;;;8.25;6.32;;;;;;;4.34;100.00;102147.63;5003112;28;20033;-76
2022/12/06 01:57:46;;;;;;;8.77;4.55;;;;;;;4.45;100.00;102138.94;5034060;28;20042;-76
2022/12/06 02:00:12;;;;;;;6.30;3.90;;;;;;;4.37;100.00;102140.28;5017652;28;20076;-74
2022/12/06 02:02:38;;;;;;;8.93;4.90;;;;;;;4.43;100.00;102127.53;5034076;28;20037;-76
2022/12/06 02:05:04;;;;;;;5.03;3.97;;;;;;;4.54;100.00;102125.84;5017423;28;20132;-75
2022/12/06 02:07:30;;;;;;;6.15;4.38;;;;;;;4.48;100.00;102133.41;5017481;28;20498;-76
2022/12/06 02:09:56;;;;;;;5.03;3.25;;;;;;;4.39;100.00;102141.06;5017256;28;20033;-76
2022/12/06 02:12:22;;;;;;;7.68;5.60;;;;;;;4.29;100.00;102137.28;5001224;28;20029;-77
2022/12/06 02:14:49;;;;;;;8.43;6.00;;;;;;;4.38;100.00;102149.97;5001151;28;20430;-77
2022/12/06 02:17:47;;;;;;;6.38;3.58;;;;;;;4.25;100.00;102143.75;5033733;28;20025;-76
2022/12/06 02:20:31;;;;;;;6.28;3.95;;;;;;;4.15;100.00;102147.97;5001036;28;20033;-76
2022/12/06 02:23:19;;;;;;;6.47;3.53;;;;;;;4.16;100.00;102139.06;5000879;28;20102;-75
2022/12/06 02:26:16;;;;;;;5.10;2.47;;;;;;;4.17;100.00;102138.94;5017325;28;20537;-75
2022/12/06 02:28:56;;;;;;;4.22;2.63;;;;;;;4.22;100.00;102138.63;5001006;28;20048;-75
2022/12/06 02:31:37;;;;;;;3.90;3.22;;;;;;;4.27;100.00;102147.19;5034754;28;20061;-76
2022/12/06 02:34:13;;;;;;;5.82;4.05;;;;;;;4.20;100.00;102129.88;5032350;28;20531;-75
2022/12/06 02:36:50;;;;;;;6.00;3.50;;;;;;;4.28;100.00;102156.00;5017313;28;20041;-75
2022/12/06 02:39:38;;;;;;;4.82;3.33;;;;;;;4.23;100.00;102161.63;5033440;28;20036;-75
2022/12/06 02:42:32;;;;;;;6.78;4.15;;;;;;;4.26;100.00;102150.81;5016952;28;20177;-75
2022/12/06 02:45:03;;;;;;;7.45;4.10;;;;;;;4.29;100.00;102160.41;5033242;28;20029;-75
2022/12/06 02:47:34;;;;;;;9.07;2.92;;;;;;;4.36;100.00;102156.38;4984812;28;20392;-75
2022/12/06 02:50:02;;;;;;;6.88;4.07;;;;;;;4.44;100.00;102158.53;5016948;28;20033;-76
2022/12/06 02:52:30;;;;;;;3.10;2.22;;;;;;;4.43;100.00;102146.19;5017072;28;20065;-75
2022/12/06 02:54:57;;;;;;;4.68;3.05;;;;;;;4.37;100.00;102142.13;5016868;28;20475;-75
2022/12/06 02:57:34;;;;;;;6.38;3.80;;;;;;;4.22;100.00;102128.00;5000663;28;20509;-75
2022/12/06 03:00:00;;;;;;;5.75;2.47;;;;;;;4.13;100.00;102115.28;5033126;28;20037;-75
2022/12/06 03:02:28;;;;;;;4.07;3.50;;;;;;;4.12;100.00;102125.06;5000535;28;20040;-75
2022/12/06 03:05:10;;;;;;;3.40;2.67;;;;;;;4.04;100.00;102123.88;5049424;28;20041;-75
2022/12/06 03:07:45;;;;;;;3.58;2.90;;;;;;;3.88;100.00;102127.50;5032788;28;20101;-75
2022/12/06 03:10:34;;;;;;;4.78;2.97;;;;;;;3.57;100.00;102114.47;5033023;28;20044;-75
2022/12/06 03:13:21;;;;;;;5.72;2.55;;;;;;;3.47;100.00;102127.50;5032686;28;20171;-75
2022/12/06 03:16:03;;;;;;;12.30;4.60;;;;;;;3.18;100.00;102126.66;5000276;28;20028;-76
2022/12/06 03:18:49;;;;;;;4.72;2.83;;;;;;;3.12;100.00;102142.97;5032988;28;20056;-76
2022/12/06 03:21:21;;;;;;;5.05;2.83;;;;;;;3.22;100.00;102136.13;5000250;28;20037;-75
2022/12/06 03:23:49;;;;;;;3.93;2.20;;;;;;;3.29;100.00;102126.84;5000384;28;20037;-75
2022/12/06 03:26:20;;;;;;;5.43;3.17;;;;;;;3.35;100.00;102126.44;5016172;28;20068;-75
2022/12/06 03:28:48;;;;;;;5.15;3.00;;;;;;;3.34;100.00;102135.38;5000194;28;20033;-76
2022/12/06 03:31:14;;;;;;;4.78;2.55;;;;;;;3.39;100.00;102145.75;5032601;28;20030;-75
2022/12/06 03:33:43;;;;;;;4.05;2.65;;;;;;;3.49;100.00;102147.72;5000071;28;20071;-75
2022/12/06 03:36:12;;;;;;;4.47;2.92;;;;;;;3.66;100.00;102145.81;5016202;28;20360;-75
2022/12/06 03:39:02;;;;;;;4.65;2.72;;;;;;;3.81;100.00;102149.28;5046614;28;20154;-75
2022/12/06 03:41:31;;;;;;;5.28;2.88;;;;;;;3.83;100.00;102137.59;4999983;28;20048;-75
2022/12/06 03:43:58;;;;;;;4.35;2.85;;;;;;;3.94;100.00;102148.44;5031897;28;20079;-75
2022/12/06 03:46:27;;;;;;;5.25;3.80;;;;;;;4.07;100.00;102142.28;5032389;28;20021;-75
2022/12/06 03:48:58;;;;;;;8.73;3.33;;;;;;;4.07;100.00;102144.97;4999894;28;20037;-74
2022/12/06 03:51:32;;;;;;;4.32;2.85;;;;;;;4.03;100.00;102140.81;4999755;28;20042;-75
2022/12/06 03:54:03;;;;;;;4.80;2.65;;;;;;;4.14;100.00;102144.47;5032152;28;20040;-75
2022/12/06 03:56:29;;;;;;;3.80;2.33;;;;;;;4.22;100.00;102146.63;5000183;28;20475;-75
2022/12/06 03:58:54;;;;;;;4.95;2.55;;;;;;;4.35;100.00;102144.88;5032613;28;20124;-75
2022/12/06 04:01:20;;;;;;;6.03;2.33;;;;;;;4.37;100.00;102142.97;5015609;28;20108;-75
2022/12/06 04:03:46;;;;;;;5.82;3.10;;;;;;;4.30;100.00;102131.00;5015690;28;20471;-76
2022/12/06 04:06:12;;;;;;;8.20;3.85;;;;;;;4.39;100.00;102146.38;4999562;28;20040;-75
2022/12/06 04:08:37;;;;;;;6.45;2.65;;;;;;;4.51;100.00;102147.38;4999442;28;20091;-75
2022/12/06 04:11:03;;;;;;;6.05;3.38;;;;;;;4.55;100.00;102154.22;5048727;28;20053;-74
2022/12/06 04:13:30;;;;;;;3.78;3.13;;;;;;;4.65;100.00;102157.09;4999690;28;20132;-75
2022/12/06 04:15:57;;;;;;;2.85;2.28;;;;;;;4.62;100.00;102152.81;5015673;28;20426;-76
2022/12/06 04:18:24;;;;;;;6.03;3.17;;;;;;;4.70;100.00;102141.66;5015825;28;20116;-76
2022/12/06 04:23:45;;;;;;;4.70;2.90;;;;;;;4.83;100.00;102157.66;5033181;28;20056;-76
2022/12/06 04:26:14;;;;;;;3.85;2.38;;;;;;;4.77;100.00;102145.63;4999422;28;20537;-75
2022/12/06 04:39:37;;;;;;;3.58;2.20;;;;;;;4.71;100.00;102146.03;5032220;28;20040;-76
2022/12/06 04:44:50;;;;;;;4.05;3.17;;;;;;;4.88;100.00;102146.69;5018524;28;20034;-75
2022/12/06 04:47:16;;;;;;;3.50;2.35;;;;;;;4.84;100.00;102151.38;5015381;28;20526;-75
2022/12/06 04:49:42;;;;;;;3.28;2.20;;;;;;;4.86;100.00;102154.78;5015598;28;20132;-75
2022/12/06 04:52:08;;;;;;;2.58;2.17;;;;;;;4.80;100.00;102156.06;5015513;28;20125;-76
2022/12/06 04:54:34;;;;;;;3.20;1.88;;;;;;;4.76;100.00;102159.03;4999394;28;20044;-75
2022/12/06 04:57:00;;;;;;;3.33;2.10;;;;;;;4.70;100.00;102152.31;5017854;28;20029;-75
2022/12/06 04:59:27;;;;;;;3.80;2.25;;;;;;;4.81;100.00;102160.41;5019108;28;20087;-75
2022/12/06 05:01:54;;;;;;;5.82;2.33;;;;;;;4.76;100.00;102162.56;5003006;28;20073;-75
2022/12/06 05:04:20;;;;;;;4.00;2.15;;;;;;;4.76;100.00;102167.03;5002698;28;20041;-75
2022/12/06 05:06:46;;;;;;;1.83;1.65;;;;;;;4.84;100.00;102154.91;5018813;28;20037;-75
2022/12/06 05:09:12;;;;;;;3.47;1.88;;;;;;;4.67;100.00;102131.19;5034951;28;20025;-75
2022/12/06 05:11:38;;;;;;;4.50;2.22;;;;;;;4.61;100.00;102151.13;5035217;28;20036;-75
2022/12/06 05:14:04;;;;;;;3.47;1.80;;;;;;;4.45;100.00;102150.44;5018381;28;20025;-75
2022/12/06 05:16:29;;;;;;;7.18;2.10;;;;;;;4.25;100.00;102154.41;5018635;28;20434;-75
2022/12/06 05:18:55;;;;;;;2.03;1.40;;;;;;;4.02;100.00;102155.03;5034772;28;20151;-76
2022/12/06 05:21:30;;;;;;;2.25;1.35;;;;;;;3.83;100.00;102150.91;5003175;28;20541;-75
2022/12/06 05:23:58;;;;;;;2.35;1.63;;;;;;;3.78;100.00;102150.34;5035880;28;20043;-75
2022/12/06 05:26:26;;;;;;;3.17;2.00;;;;;;;3.64;100.00;102161.84;5018516;28;20112;-75
2022/12/06 05:28:54;;;;;;;4.03;2.30;;;;;;;3.55;100.00;102158.91;5002206;28;20040;-75
2022/12/06 05:31:20;;;;;;;5.35;2.55;;;;;;;3.52;100.00;102147.53;5018591;28;20029;-76
2022/12/06 05:33:47;;;;;;;5.57;2.35;;;;;;;3.51;100.00;102151.13;5002152;28;20044;-76
2022/12/06 05:36:20;;;;;;;3.40;2.25;;;;;;;3.42;100.00;102148.22;5018558;28;20037;-75
2022/12/06 05:38:47;;;;;;;3.67;2.10;;;;;;;3.22;100.00;102141.44;5035113;28;20112;-75
2022/12/06 05:41:13;;;;;;;3.80;2.08;;;;;;;3.02;100.00;102132.91;5001770;28;20487;-75
2022/12/06 05:43:39;;;;;;;2.05;1.30;;;;;;;3.01;100.00;102144.47;5001537;28;20049;-75
2022/12/06 05:46:04;;;;;;;3.13;2.22;;;;;;;3.05;100.00;102148.66;5001948;28;20045;-75
2022/12/06 05:48:31;;;;;;;3.50;2.15;;;;;;;3.06;100.00;102147.69;5033964;28;20411;-75
2022/12/06 05:50:56;;;;;;;5.95;2.00;;;;;;;3.06;100.00;102155.66;5017737;28;20025;-75
2022/12/06 05:53:22;;;;;;;4.80;2.05;;;;;;;3.05;100.00;102148.66;5017945;28;20080;-75
2022/12/06 05:55:49;;;;;;;1.00;0.93;;;;;;;3.06;100.00;102147.69;5001560;28;20521;-76
2022/12/06 05:58:15;;;;;;;2.28;1.50;;;;;;;3.15;100.00;102153.41;5018018;28;20391;-75
2022/12/06 06:00:45;;;;;;;3.60;1.88;;;;;;;3.39;100.00;102156.38;5034264;28;20073;-75
2022/12/06 06:03:11;;;;;;;4.28;2.08;;;;;;;3.55;100.00;102148.28;5018041;28;20041;-76
2022/12/06 06:05:44;;;;;;;3.72;2.08;;;;;;;3.58;100.00;102121.50;5017236;28;20471;-75
2022/12/06 06:08:10;;;;;;;2.90;1.97;;;;;;;3.77;100.00;102143.31;5033633;28;20060;-75
2022/12/06 06:10:35;;;;;;;3.22;1.80;;;;;;;3.94;100.00;102152.88;5017075;28;20037;-75
2022/12/06 06:13:03;;;;;;;3.33;1.60;;;;;;;4.00;100.00;102149.00;5001360;28;20091;-75
2022/12/06 06:15:28;;;;;;;4.32;1.73;;;;;;;4.11;100.00;102146.47;5001424;28;20044;-76
2022/12/06 06:17:54;;;;;;;4.25;1.42;;;;;;;4.19;100.00;102155.66;5017554;28;20045;-75
2022/12/06 06:20:20;;;;;;;1.08;0.98;;;;;;;4.27;100.00;102160.50;5001137;28;20035;-75
2022/12/06 06:22:45;;;;;;;2.17;1.60;;;;;;;4.28;100.00;102164.00;5001154;28;20383;-76
2022/12/06 06:25:11;;;;;;;3.03;1.98;;;;;;;4.38;100.00;102176.63;5017200;28;20029;-75
2022/12/06 06:27:37;;;;;;;3.38;1.50;;;;;;;4.40;100.00;102169.38;5033225;28;20025;-75
2022/12/06 06:30:09;;;;;;;2.92;1.92;;;;;;;4.48;100.00;102176.03;5017185;28;20048;-75
2022/12/06 06:32:35;;;;;;;2.10;1.50;;;;;;;4.51;100.00;102184.66;5001084;28;20484;-75
2022/12/06 06:35:01;;;;;;;6.07;2.45;;;;;;;4.54;100.00;102176.44;5033378;28;20410;-75
2022/12/06 06:37:26;;;;;;;2.75;1.60;;;;;;;4.64;100.00;102179.38;5000921;28;20033;-75
2022/12/06 06:39:52;;;;;;;6.15;1.48;;;;;;;4.62;100.00;102173.28;5000806;28;20049;-75
2022/12/06 06:42:18;;;;;;;3.33;2.05;;;;;;;4.61;100.00;102176.91;5016943;28;20395;-76
2022/12/06 06:44:44;;;;;;;2.30;1.73;;;;;;;4.64;100.00;102179.38;5000713;28;20124;-75
2022/12/06 06:47:09;;;;;;;2.47;1.63;;;;;;;4.58;100.00;102174.47;5033211;28;20033;-75
2022/12/06 06:49:35;;;;;;;3.63;2.67;;;;;;;4.58;100.00;102167.31;5033416;28;20032;-76
2022/12/06 06:52:01;;;;;;;2.92;2.00;;;;;;;4.58;100.00;102166.47;5033330;28;20037;-76
2022/12/06 06:54:26;;;;;;;3.15;2.50;;;;;;;4.63;100.00;102180.31;5000535;28;20525;-75
2022/12/06 06:56:56;;;;;;;3.53;1.80;;;;;;;4.47;100.00;102142.34;5032729;28;20469;-75
2022/12/06 06:59:22;;;;;;;4.93;2.22;;;;;;;4.65;100.00;102175.75;5000263;28;20041;-75
2022/12/06 07:01:48;;;;;;;3.13;2.47;;;;;;;4.61;100.00;102182.25;5000450;28;20033;-75
2022/12/06 07:04:14;;;;;;;6.32;3.20;;;;;;;4.60;100.00;102184.06;5032769;28;20057;-75
2022/12/06 07:06:40;;;;;;;4.97;2.35;;;;;;;4.62;100.00;102189.25;5049128;28;20542;-76
2022/12/06 07:09:06;;;;;;;4.53;3.00;;;;;;;4.57;100.00;102183.38;5016625;28;20033;-75
2022/12/06 07:11:31;;;;;;;5.95;3.83;;;;;;;4.56;100.00;102181.69;5033002;28;20045;-75
2022/12/06 07:13:57;;;;;;;5.00;3.53;;;;;;;4.55;100.00;102193.28;5016466;28;20033;-75
2022/12/06 07:16:23;;;;;;;5.45;2.88;;;;;;;4.39;100.00;102170.34;5049399;28;20038;-75
2022/12/06 07:18:48;;;;;;;8.15;3.75;;;;;;;4.47;100.00;102192.94;5015636;28;20029;-75
2022/12/06 07:21:15;;;;;;;4.93;3.33;;;;;;;4.51;100.00;102199.78;5016040;28;20044;-76
2022/12/06 07:23:41;;;;;;;10.07;4.65;;;;;;;4.50;100.00;102184.75;4999691;28;20036;-75
2022/12/06 07:26:12;;;;;;;9.35;3.42;;;;;;;4.42;100.00;102169.28;5032703;28;20037;-75
2022/12/06 07:28:39;;;;;;;5.32;2.78;;;;;;;4.49;100.00;102199.03;4999662;28;20025;-75
2022/12/06 07:31:10;;;;;;;5.45;3.42;;;;;;;4.48;100.00;102195.50;5032271;28;20037;-75
2022/12/06 07:33:36;;;;;;;7.57;3.05;;;;;;;4.55;100.00;102198.63;4999958;28;20041;-75
2022/12/06 07:36:02;;;;;;;3.60;1.88;;;;;;;4.49;100.00;102204.34;4999934;28;20387;-75
2022/12/06 07:38:27;;;;;;;2.53;1.38;;;;;;;4.45;100.00;102208.19;4999843;28;20037;-75
2022/12/06 07:40:53;;;;;;;3.17;2.38;;;;;;;4.38;100.00;102199.72;4999637;28;20046;-75
2022/12/06 07:46:09;;;;;;;1.80;1.40;;;;;;;4.32;100.00;102202.81;5018593;28;20468;-75
2022/12/06 07:48:35;;;;;;;1.60;1.38;;;;;;;4.29;100.00;102201.19;5032490;28;20037;-76
2022/12/06 07:51:04;;;;;;;4.57;1.90;;;;;;;4.24;100.00;102192.66;5016163;28;20033;-75
2022/12/06 07:53:29;;;;;;;5.57;1.73;;;;;;;4.33;100.00;102207.16;5032496;28;20034;-75
2022/12/06 07:55:55;;;;;;;3.80;1.20;;;;;;;4.28;100.00;102210.13;4999810;28;20482;-75
2022/12/06 07:58:21;;;;;;;5.88;2.30;;;;;;;4.14;100.00;102196.84;5015953;28;20030;-75
2022/12/06 08:00:46;;;;;;;3.13;1.67;;;;;;;4.14;100.00;102213.69;5015980;28;20078;-75
2022/12/06 08:03:12;;;;;;;3.25;1.73;;;;;;;4.18;100.00;102223.19;5032430;28;20091;-75
2022/12/06 08:05:38;;;;;;;4.82;1.85;;;;;;;4.13;100.00;102227.09;5049024;28;20107;-74
2022/12/06 08:08:04;;;;;;;3.30;1.65;;;;;;;4.02;100.00;102222.44;5015424;28;20490;-75
2022/12/06 08:10:29;;;;;;;2.83;1.40;;;;;;;4.06;100.00;102231.94;4999613;28;20026;-75
2022/12/06 08:12:55;;;;;;;2.92;1.58;;;;;;;4.08;100.00;102235.38;5032331;28;20120;-75
2022/12/06 08:15:21;;;;;;;1.83;1.30;;;;;;;4.04;100.00;102238.31;5015546;28;20033;-75
2022/12/06 08:17:46;;;;;;;1.13;1.02;;;;;;;4.00;100.00;102236.81;4999630;28;20038;-75
2022/12/06 08:20:12;;;;;;;4.15;2.00;;;;;;;3.93;100.00;102231.00;4999525;28;20476;-74
2022/12/06 08:22:38;;;;;;;1.70;1.55;;;;;;;3.99;100.00;102232.44;5015664;28;20025;-74
2022/12/06 08:25:04;;;;;;;1.02;0.90;;;;;;;3.94;100.00;102244.22;5032196;28;20033;-74
2022/12/06 08:27:29;;;;;;;2.67;1.25;;;;;;;3.94;100.00;102227.38;4999129;28;20040;-75
2022/12/06 08:29:55;;;;;;;2.10;1.05;;;;;;;3.89;100.00;102232.13;4999296;28;20041;-75
2022/12/06 08:32:21;;;;;;;1.58;1.00;;;;;;;3.89;100.00;102233.03;5018788;28;20590;-75
2022/12/06 08:34:47;;;;;;;1.13;1.02;;;;;;;3.85;100.00;102234.16;5035210;28;20025;-74
2022/12/06 08:37:13;;;;;;;1.27;1.08;;;;;;;3.77;100.00;102239.09;5003092;28;20116;-74
2022/12/06 08:39:38;;;;;;;2.45;1.50;;;;;;;3.71;100.00;102243.00;5019136;28;20475;-75
2022/12/06 08:42:05;;;;;;;2.72;1.23;;;;;;;3.67;100.00;102248.59;5019121;28;20029;-75
2022/12/06 08:44:31;;;;;;;0.82;0.82;;;;;;;3.63;100.00;102252.41;5019092;28;20033;-76
2022/12/06 08:46:59;;;;;;;2.15;1.35;;;;;;;3.68;100.00;102252.97;5002625;28;20037;-75
2022/12/06 08:49:25;;;;;;;1.35;1.15;;;;;;;3.67;100.00;102259.22;5035428;28;20087;-75
2022/12/06 08:51:51;;;;;;;3.53;1.10;;;;;;;3.68;100.00;102261.81;5002859;28;20120;-74
2022/12/06 08:54:20;;;;;;;0.95;0.90;;;;;;;3.66;100.00;102266.38;5035448;28;20080;-74
2022/12/06 08:56:46;;;;;;;2.38;1.00;;;;;;;3.61;100.00;102265.78;5018601;28;20037;-75
2022/12/06 08:59:13;;;;;;;2.38;1.10;;;;;;;3.67;100.00;102264.56;5002801;28;20033;-75
2022/12/06 09:01:38;;;;;;;1.08;0.75;;;;;;;3.65;100.00;102255.81;5002929;28;20065;-74
2022/12/06 09:04:06;;;;;;;2.30;1.00;;;;;;;3.73;100.00;102250.88;5018484;28;20408;-74
2022/12/06 09:06:32;;;;;;;1.17;0.90;;;;;;;3.78;100.00;102248.78;5051656;28;20133;-74
2022/12/06 09:08:58;;;;;;;1.38;1.10;;;;;;;3.84;100.00;102256.41;5018724;28;20132;-74
2022/12/06 09:11:25;;;;;;;1.13;0.93;;;;;;;3.90;100.00;102261.31;5002373;28;20033;-75
2022/12/06 09:13:51;;;;;;;1.30;1.08;;;;;;;3.93;100.00;102270.94;5002293;28;20057;-74
2022/12/06 09:16:20;;;;;;;1.35;0.70;;;;;;;3.95;100.00;102269.88;5034517;28;20029;-75
2022/12/06 09:18:46;;;;;;;1.52;0.88;;;;;;;3.85;100.00;102249.25;5034985;28;20112;-75
2022/12/06 09:21:29;;;;;;;2.70;0.88;;;;;;;4.03;100.00;102271.22;5002171;28;20034;-75
2022/12/06 09:23:55;;;;;;;2.40;0.73;;;;;;;4.02;100.00;102270.34;5018839;28;20037;-74
2022/12/06 09:26:21;;;;;;;1.02;0.88;;;;;;;4.09;100.00;102279.66;5034706;28;20033;-75
2022/12/06 09:28:50;;;;;;;3.83;2.08;;;;;;;4.17;100.00;102273.84;5002145;28;20064;-75
2022/12/06 09:31:18;;;;;;;1.60;0.75;;;;;;;4.19;100.00;102266.63;5018110;28;20029;-74
2022/12/06 09:33:44;;;;;;;1.83;1.00;;;;;;;4.21;100.00;102274.50;5034845;28;20080;-75
2022/12/06 09:36:13;;;;;;;4.47;1.45;;;;;;;4.22;100.00;102262.91;5002013;28;20032;-74
2022/12/06 09:38:41;;;;;;;2.40;1.02;;;;;;;4.20;100.00;102263.00;5002074;28;20033;-75
2022/12/06 09:41:39;;;;;;;3.38;1.23;;;;;;;4.15;100.00;102270.44;5001591;28;20100;-75
2022/12/06 09:44:32;;;;;;;3.83;1.10;;;;;;;3.93;100.00;102261.13;5003862;28;20049;-75
2022/12/06 09:46:57;;;;;;;1.13;1.02;;;;;;;3.87;100.00;102272.16;5034424;28;20029;-75
2022/12/06 09:49:36;;;;;;;2.38;1.10;;;;;;;3.69;100.00;102265.31;5034178;28;20431;-74
2022/12/06 09:52:27;;;;;;;3.05;0.93;;;;;;;3.86;100.00;102265.13;5034237;28;20030;-74
2022/12/06 09:55:18;;;;;;;1.35;1.25;;;;;;;4.52;100.00;102257.41;5034535;28;20111;-74
2022/12/06 09:57:59;;;;;;;1.67;1.30;;;;;;;5.03;100.00;102268.28;5034014;28;20037;-75
2022/12/06 10:00:30;;;;;;;2.83;1.58;;;;;;;5.80;97.28;102269.22;5034209;28;20029;-75
2022/12/06 10:03:28;;;;;;;1.60;1.30;;;;;;;6.48;92.69;102275.09;5017842;28;20065;-74
2022/12/06 10:06:04;;;;;;;1.67;1.55;;;;;;;7.90;83.35;102268.75;5030859;28;20044;-74
2022/12/06 10:08:49;;;;;;;2.53;1.45;;;;;;;9.23;76.53;102275.75;5017500;28;20079;-74
2022/12/06 10:11:24;;;;;;;1.85;1.50;;;;;;;10.18;70.52;102280.13;5033559;28;20029;-74
2022/12/06 10:13:55;;;;;;;2.00;1.33;;;;;;;10.71;66.22;102283.38;5033629;28;20099;-75
2022/12/06 10:16:45;;;;;;;2.47;1.25;;;;;;;11.14;62.67;102271.38;5016948;28;20033;-75
2022/12/06 10:19:26;;;;;;;1.45;1.30;;;;;;;11.53;60.49;102275.88;5033788;28;20029;-77
2022/12/06 10:22:00;;;;;;;2.63;1.20;;;;;;;11.78;59.66;102282.47;5017363;28;20040;-77
2022/12/06 10:24:35;;;;;;;2.10;1.50;;;;;;;11.95;58.04;102280.88;5034560;28;20044;-77
2022/12/06 10:27:10;;;;;;;1.58;1.13;;;;;;;11.97;57.00;102278.91;5033692;28;20033;-77
2022/12/06 10:29:36;;;;;;;1.75;1.20;;;;;;;11.60;56.64;102280.53;5033524;28;20033;-77
2022/12/06 10:32:14;;;;;;;1.38;1.20;;;;;;;11.26;58.18;102282.84;5033694;28;20044;-77
2022/12/06 10:34:43;;;;;;;1.73;1.33;;;;;;;10.95;59.28;102293.75;5017323;28;20467;-78
2022/12/06 10:37:30;;;;;;;2.05;1.48;;;;;;;10.62;59.76;102295.00;5034437;28;20025;-78
2022/12/06 10:40:28;;;;;;;1.73;1.20;;;;;;;10.50;60.28;102291.56;5033501;28;20044;-78
2022/12/06 10:43:10;;;;;;;1.20;1.10;;;;;;;10.25;60.73;102300.94;5016158;28;20041;-77
2022/12/06 10:48:42;;;;;;;2.67;1.55;;;;;;;10.07;60.58;102283.75;5047588;28;20045;-78
2022/12/06 10:51:17;;;;;;;2.72;1.10;;;;;;;9.49;63.76;102299.56;5000487;28;20029;-77
2022/12/06 10:53:50;;;;;;;1.35;1.00;;;;;;;9.40;64.48;102290.47;5000295;28;20080;-77
2022/12/06 10:56:20;;;;;;;1.73;1.30;;;;;;;9.94;62.51;102294.72;5032926;28;20041;-76
2022/12/06 10:59:04;;;;;;;1.75;1.30;;;;;;;10.71;60.01;102287.91;5032680;28;20049;-76
2022/12/06 11:01:37;;;;;;;2.78;1.10;;;;;;;11.33;57.06;102286.69;5016325;28;20060;-73
2022/12/06 11:04:16;;;;;;;4.90;1.33;;;;;;;11.07;57.29;102293.63;4999959;28;20087;-73
2022/12/06 11:06:47;;;;;;;1.50;1.00;;;;;;;10.42;58.89;102294.09;5016263;28;20496;-73
2022/12/06 11:09:25;;;;;;;2.55;1.20;;;;;;;9.47;63.15;102286.25;5000071;28;20045;-73
2022/12/06 11:11:51;;;;;;;1.00;0.90;;;;;;;9.34;64.84;102290.97;5000190;28;20130;-73
2022/12/06 11:14:22;;;;;;;1.25;1.00;;;;;;;9.46;64.20;102287.25;4999960;28;20471;-74
2022/12/06 11:17:13;;;;;;;3.42;1.40;;;;;;;9.31;64.28;102277.81;5016489;28;20033;-73
2022/12/06 11:19:47;;;;;;;2.00;1.50;;;;;;;8.61;67.48;102282.72;5016063;28;20026;-73
2022/12/06 11:22:30;;;;;;;1.20;1.08;;;;;;;9.41;64.87;102267.97;5000737;28;20037;-73
2022/12/06 11:24:59;;;;;;;0.88;0.88;;;;;;;9.68;62.99;102272.81;5016318;28;20129;-73
2022/12/06 11:27:35;;;;;;;5.22;2.17;;;;;;;9.17;64.09;102277.13;4999550;28;20515;-73
2022/12/06 11:30:03;;;;;;;1.92;1.15;;;;;;;9.50;62.83;102279.75;5015715;28;20025;-74
2022/12/06 11:32:29;;;;;;;1.83;1.73;;;;;;;9.54;62.98;102284.75;5032456;28;20026;-73
2022/12/06 11:34:57;;;;;;;3.13;1.20;;;;;;;9.34;64.14;102272.16;4999672;28;20426;-73
2022/12/06 11:37:25;;;;;;;1.17;1.00;;;;;;;9.28;64.28;102276.22;5032408;28;20075;-73
2022/12/06 11:39:55;;;;;;;2.03;1.27;;;;;;;9.25;63.74;102271.97;4999408;28;20038;-73
2022/12/06 11:42:24;;;;;;;4.85;1.02;;;;;;;8.43;67.25;102263.63;4999691;28;20075;-73
2022/12/06 11:45:05;;;;;;;3.08;1.40;;;;;;;8.42;69.30;102261.91;5015914;28;20041;-73
2022/12/06 11:47:30;;;;;;;2.55;1.42;;;;;;;9.49;64.85;102261.97;5031817;28;20029;-75
2022/12/06 11:49:56;;;;;;;1.02;0.90;;;;;;;9.53;63.44;102264.25;4999429;28;20033;-73
2022/12/06 11:52:37;;;;;;;3.50;1.23;;;;;;;8.44;67.58;102253.75;4999668;28;20155;-73
2022/12/06 11:55:14;;;;;;;2.38;1.48;;;;;;;7.32;72.71;102252.72;5015909;28;20079;-73
2022/12/06 11:58:04;;;;;;;2.65;1.40;;;;;;;7.58;73.86;102253.38;5048568;28;20029;-73
2022/12/06 12:00:30;;;;;;;2.95;1.05;;;;;;;6.47;78.19;102258.19;5001505;28;20045;-73
2022/12/06 12:02:56;;;;;;;4.03;1.30;;;;;;;5.91;83.83;102253.28;5048276;28;20056;-74